sensor_id;sensor_type;location;lat;lon;timestamp;P1;durP1;ratioP1;P2;durP2;ratioP2
10100;SDS011;5090;51.258;4.436;2023-07-13T00:00:52;10.00;;;2.03;;
10100;SDS011;5090;51.258;4.436;2023-07-13T00:03:19;6.03;;;1.90;;
10100;SDS011;5090;51.258;4.436;2023-07-13T00:05:52;4.70;;;1.93;;
10100;SDS011;5090;51.258;4.436;2023-07-13T00:08:15;7.20;;;1.90;;
10100;SDS011;5090;51.258;4.436;2023-07-13T00:10:44;7.07;;;1.80;;
10100;SDS011;5090;51.258;4.436;2023-07-13T00:13:12;6.50;;;1.93;;
10100;SDS011;5090;51.258;4.436;2023-07-13T00:15:40;5.07;;;1.70;;
10100;SDS011;5090;51.258;4.436;2023-07-13T00:18:08;6.90;;;2.07;;
10100;SDS011;5090;51.258;4.436;2023-07-13T00:20:37;8.27;;;2.00;;
10100;SDS011;5090;51.258;4.436;2023-07-13T00:23:05;6.87;;;1.63;;
10100;SDS011;5090;51.258;4.436;2023-07-13T00:25:33;7.07;;;2.10;;
10100;SDS011;5090;51.258;4.436;2023-07-13T00:28:02;6.37;;;1.60;;
10100;SDS011;5090;51.258;4.436;2023-07-13T00:30:30;9.17;;;2.07;;
10100;SDS011;5090;51.258;4.436;2023-07-13T00:32:58;8.37;;;2.37;;
10100;SDS011;5090;51.258;4.436;2023-07-13T00:35:27;8.67;;;2.40;;
10100;SDS011;5090;51.258;4.436;2023-07-13T00:37:55;7.47;;;1.77;;
10100;SDS011;5090;51.258;4.436;2023-07-13T00:40:23;10.40;;;2.40;;
10100;SDS011;5090;51.258;4.436;2023-07-13T00:42:52;8.07;;;1.90;;
10100;SDS011;5090;51.258;4.436;2023-07-13T00:48:02;7.33;;;2.37;;
10100;SDS011;5090;51.258;4.436;2023-07-13T00:50:31;6.87;;;2.03;;
10100;SDS011;5090;51.258;4.436;2023-07-13T00:52:59;7.07;;;1.90;;
10100;SDS011;5090;51.258;4.436;2023-07-13T00:55:27;7.10;;;2.43;;
10100;SDS011;5090;51.258;4.436;2023-07-13T00:57:55;6.23;;;2.13;;
10100;SDS011;5090;51.258;4.436;2023-07-13T01:00:24;12.70;;;2.93;;
10100;SDS011;5090;51.258;4.436;2023-07-13T01:02:52;8.00;;;2.10;;
10100;SDS011;5090;51.258;4.436;2023-07-13T01:05:21;7.53;;;1.87;;
10100;SDS011;5090;51.258;4.436;2023-07-13T01:07:49;12.13;;;2.40;;
10100;SDS011;5090;51.258;4.436;2023-07-13T01:10:17;14.00;;;2.23;;
10100;SDS011;5090;51.258;4.436;2023-07-13T01:12:45;10.50;;;2.93;;
10100;SDS011;5090;51.258;4.436;2023-07-13T01:17:47;9.07;;;1.97;;
10100;SDS011;5090;51.258;4.436;2023-07-13T01:20:15;10.40;;;2.53;;
10100;SDS011;5090;51.258;4.436;2023-07-13T01:22:43;9.00;;;2.30;;
10100;SDS011;5090;51.258;4.436;2023-07-13T01:25:12;8.00;;;2.73;;
10100;SDS011;5090;51.258;4.436;2023-07-13T01:27:40;10.43;;;3.07;;
10100;SDS011;5090;51.258;4.436;2023-07-13T01:30:08;8.87;;;2.97;;
10100;SDS011;5090;51.258;4.436;2023-07-13T01:32:37;8.63;;;2.63;;
10100;SDS011;5090;51.258;4.436;2023-07-13T01:35:05;9.10;;;2.57;;
10100;SDS011;5090;51.258;4.436;2023-07-13T01:37:33;7.83;;;2.40;;
10100;SDS011;5090;51.258;4.436;2023-07-13T01:40:02;11.53;;;3.10;;
10100;SDS011;5090;51.258;4.436;2023-07-13T01:42:30;11.10;;;3.40;;
10100;SDS011;5090;51.258;4.436;2023-07-13T01:44:58;8.47;;;2.90;;
10100;SDS011;5090;51.258;4.436;2023-07-13T01:47:26;9.83;;;2.50;;
10100;SDS011;5090;51.258;4.436;2023-07-13T01:49:54;8.13;;;2.60;;
10100;SDS011;5090;51.258;4.436;2023-07-13T01:52:23;7.87;;;2.70;;
10100;SDS011;5090;51.258;4.436;2023-07-13T01:54:51;10.90;;;2.53;;
10100;SDS011;5090;51.258;4.436;2023-07-13T01:57:19;10.33;;;3.00;;
10100;SDS011;5090;51.258;4.436;2023-07-13T01:59:47;6.43;;;2.70;;
10100;SDS011;5090;51.258;4.436;2023-07-13T02:02:15;11.03;;;2.63;;
10100;SDS011;5090;51.258;4.436;2023-07-13T02:04:44;14.67;;;3.13;;
10100;SDS011;5090;51.258;4.436;2023-07-13T02:07:12;14.10;;;3.30;;
10100;SDS011;5090;51.258;4.436;2023-07-13T02:09:40;13.80;;;3.07;;
10100;SDS011;5090;51.258;4.436;2023-07-13T02:12:08;13.67;;;2.90;;
10100;SDS011;5090;51.258;4.436;2023-07-13T02:14:36;11.80;;;2.80;;
10100;SDS011;5090;51.258;4.436;2023-07-13T02:17:05;11.20;;;2.70;;
10100;SDS011;5090;51.258;4.436;2023-07-13T02:19:33;7.67;;;2.53;;
10100;SDS011;5090;51.258;4.436;2023-07-13T02:22:01;13.70;;;3.00;;
10100;SDS011;5090;51.258;4.436;2023-07-13T02:24:29;12.03;;;3.27;;
10100;SDS011;5090;51.258;4.436;2023-07-13T02:26:58;14.23;;;2.90;;
10100;SDS011;5090;51.258;4.436;2023-07-13T02:29:26;9.23;;;3.33;;
10100;SDS011;5090;51.258;4.436;2023-07-13T02:31:54;12.00;;;3.40;;
10100;SDS011;5090;51.258;4.436;2023-07-13T02:34:22;9.83;;;3.67;;
10100;SDS011;5090;51.258;4.436;2023-07-13T02:36:50;9.37;;;3.23;;
10100;SDS011;5090;51.258;4.436;2023-07-13T02:39:19;16.00;;;3.80;;
10100;SDS011;5090;51.258;4.436;2023-07-13T02:41:47;12.97;;;3.87;;
10100;SDS011;5090;51.258;4.436;2023-07-13T02:44:15;15.20;;;3.80;;
10100;SDS011;5090;51.258;4.436;2023-07-13T02:46:43;16.10;;;3.27;;
10100;SDS011;5090;51.258;4.436;2023-07-13T02:49:11;9.67;;;2.90;;
10100;SDS011;5090;51.258;4.436;2023-07-13T02:51:40;11.47;;;3.63;;
10100;SDS011;5090;51.258;4.436;2023-07-13T02:54:08;12.07;;;3.43;;
10100;SDS011;5090;51.258;4.436;2023-07-13T02:56:36;18.60;;;3.97;;
10100;SDS011;5090;51.258;4.436;2023-07-13T02:59:04;16.10;;;3.93;;
10100;SDS011;5090;51.258;4.436;2023-07-13T03:01:32;18.03;;;4.53;;
10100;SDS011;5090;51.258;4.436;2023-07-13T03:04:01;14.47;;;3.57;;
10100;SDS011;5090;51.258;4.436;2023-07-13T03:06:30;12.67;;;3.90;;
10100;SDS011;5090;51.258;4.436;2023-07-13T03:08:57;17.87;;;3.80;;
10100;SDS011;5090;51.258;4.436;2023-07-13T03:11:25;13.17;;;3.60;;
10100;SDS011;5090;51.258;4.436;2023-07-13T03:13:54;14.23;;;4.37;;
10100;SDS011;5090;51.258;4.436;2023-07-13T03:16:22;13.67;;;4.23;;
10100;SDS011;5090;51.258;4.436;2023-07-13T03:18:50;14.57;;;4.10;;
10100;SDS011;5090;51.258;4.436;2023-07-13T03:21:18;13.93;;;4.50;;
10100;SDS011;5090;51.258;4.436;2023-07-13T03:23:47;12.60;;;4.23;;
10100;SDS011;5090;51.258;4.436;2023-07-13T03:26:17;10.33;;;4.30;;
10100;SDS011;5090;51.258;4.436;2023-07-13T03:28:44;20.23;;;5.13;;
10100;SDS011;5090;51.258;4.436;2023-07-13T03:31:14;17.37;;;5.13;;
10100;SDS011;5090;51.258;4.436;2023-07-13T03:33:41;21.80;;;4.83;;
10100;SDS011;5090;51.258;4.436;2023-07-13T03:36:12;15.43;;;4.87;;
10100;SDS011;5090;51.258;4.436;2023-07-13T03:38:37;14.83;;;4.97;;
10100;SDS011;5090;51.258;4.436;2023-07-13T03:41:06;17.10;;;4.97;;
10100;SDS011;5090;51.258;4.436;2023-07-13T03:43:35;12.57;;;5.47;;
10100;SDS011;5090;51.258;4.436;2023-07-13T03:46:03;18.63;;;6.47;;
10100;SDS011;5090;51.258;4.436;2023-07-13T03:48:31;19.53;;;6.23;;
10100;SDS011;5090;51.258;4.436;2023-07-13T03:51:00;22.43;;;6.63;;
10100;SDS011;5090;51.258;4.436;2023-07-13T03:53:28;23.80;;;6.57;;
10100;SDS011;5090;51.258;4.436;2023-07-13T03:55:56;19.17;;;6.63;;
10100;SDS011;5090;51.258;4.436;2023-07-13T03:58:28;16.53;;;5.67;;
10100;SDS011;5090;51.258;4.436;2023-07-13T04:00:54;17.47;;;6.70;;
10100;SDS011;5090;51.258;4.436;2023-07-13T04:03:22;20.23;;;6.30;;
10100;SDS011;5090;51.258;4.436;2023-07-13T04:05:50;24.30;;;6.60;;
10100;SDS011;5090;51.258;4.436;2023-07-13T04:08:19;17.47;;;5.93;;
10100;SDS011;5090;51.258;4.436;2023-07-13T04:10:47;21.00;;;5.60;;
10100;SDS011;5090;51.258;4.436;2023-07-13T04:13:15;18.53;;;4.90;;
10100;SDS011;5090;51.258;4.436;2023-07-13T04:15:43;19.17;;;5.40;;
10100;SDS011;5090;51.258;4.436;2023-07-13T04:18:11;21.97;;;5.87;;
10100;SDS011;5090;51.258;4.436;2023-07-13T04:20:40;20.77;;;6.27;;
10100;SDS011;5090;51.258;4.436;2023-07-13T04:23:08;20.13;;;6.37;;
10100;SDS011;5090;51.258;4.436;2023-07-13T04:25:37;17.07;;;7.23;;
10100;SDS011;5090;51.258;4.436;2023-07-13T04:28:05;18.87;;;6.30;;
10100;SDS011;5090;51.258;4.436;2023-07-13T04:30:33;19.70;;;6.30;;
10100;SDS011;5090;51.258;4.436;2023-07-13T04:33:01;22.77;;;7.13;;
10100;SDS011;5090;51.258;4.436;2023-07-13T04:35:30;23.23;;;6.80;;
10100;SDS011;5090;51.258;4.436;2023-07-13T04:37:58;22.77;;;6.70;;
10100;SDS011;5090;51.258;4.436;2023-07-13T04:40:27;24.53;;;7.63;;
10100;SDS011;5090;51.258;4.436;2023-07-13T04:42:54;21.53;;;7.17;;
10100;SDS011;5090;51.258;4.436;2023-07-13T04:45:23;21.13;;;7.47;;
10100;SDS011;5090;51.258;4.436;2023-07-13T04:47:52;19.43;;;7.10;;
10100;SDS011;5090;51.258;4.436;2023-07-13T04:50:20;17.20;;;6.93;;
10100;SDS011;5090;51.258;4.436;2023-07-13T04:52:49;23.17;;;7.20;;
10100;SDS011;5090;51.258;4.436;2023-07-13T04:55:17;24.73;;;7.70;;
10100;SDS011;5090;51.258;4.436;2023-07-13T04:57:46;19.43;;;6.87;;
10100;SDS011;5090;51.258;4.436;2023-07-13T05:00:14;14.33;;;6.17;;
10100;SDS011;5090;51.258;4.436;2023-07-13T05:02:43;18.83;;;7.53;;
10100;SDS011;5090;51.258;4.436;2023-07-13T05:05:11;21.77;;;6.20;;
10100;SDS011;5090;51.258;4.436;2023-07-13T05:07:39;18.97;;;6.07;;
10100;SDS011;5090;51.258;4.436;2023-07-13T05:10:08;17.07;;;5.47;;
10100;SDS011;5090;51.258;4.436;2023-07-13T05:12:36;11.43;;;5.17;;
10100;SDS011;5090;51.258;4.436;2023-07-13T05:15:04;22.77;;;5.87;;
10100;SDS011;5090;51.258;4.436;2023-07-13T05:17:33;16.67;;;5.80;;
10100;SDS011;5090;51.258;4.436;2023-07-13T05:20:01;17.60;;;5.20;;
10100;SDS011;5090;51.258;4.436;2023-07-13T05:22:30;19.07;;;5.83;;
10100;SDS011;5090;51.258;4.436;2023-07-13T05:24:58;24.00;;;6.07;;
10100;SDS011;5090;51.258;4.436;2023-07-13T05:27:26;16.70;;;5.83;;
10100;SDS011;5090;51.258;4.436;2023-07-13T05:29:54;18.50;;;5.27;;
10100;SDS011;5090;51.258;4.436;2023-07-13T05:32:23;27.10;;;6.20;;
10100;SDS011;5090;51.258;4.436;2023-07-13T05:34:51;15.17;;;5.10;;
10100;SDS011;5090;51.258;4.436;2023-07-13T05:37:19;17.07;;;5.13;;
10100;SDS011;5090;51.258;4.436;2023-07-13T05:39:47;17.60;;;5.53;;
10100;SDS011;5090;51.258;4.436;2023-07-13T05:42:15;20.00;;;4.70;;
10100;SDS011;5090;51.258;4.436;2023-07-13T05:44:43;15.87;;;5.07;;
10100;SDS011;5090;51.258;4.436;2023-07-13T05:47:12;19.67;;;4.80;;
10100;SDS011;5090;51.258;4.436;2023-07-13T05:49:40;18.53;;;4.53;;
10100;SDS011;5090;51.258;4.436;2023-07-13T05:52:08;14.80;;;4.60;;
10100;SDS011;5090;51.258;4.436;2023-07-13T05:54:36;11.80;;;4.17;;
10100;SDS011;5090;51.258;4.436;2023-07-13T05:57:04;15.47;;;4.70;;
10100;SDS011;5090;51.258;4.436;2023-07-13T05:59:33;8.97;;;3.63;;
10100;SDS011;5090;51.258;4.436;2023-07-13T06:02:01;18.13;;;4.60;;
10100;SDS011;5090;51.258;4.436;2023-07-13T06:04:29;20.43;;;4.17;;
10100;SDS011;5090;51.258;4.436;2023-07-13T06:06:57;10.50;;;4.20;;
10100;SDS011;5090;51.258;4.436;2023-07-13T06:09:25;20.17;;;4.47;;
10100;SDS011;5090;51.258;4.436;2023-07-13T06:11:54;14.53;;;4.10;;
10100;SDS011;5090;51.258;4.436;2023-07-13T06:14:22;15.63;;;3.93;;
10100;SDS011;5090;51.258;4.436;2023-07-13T06:16:50;19.70;;;5.37;;
10100;SDS011;5090;51.258;4.436;2023-07-13T06:19:18;14.77;;;4.43;;
10100;SDS011;5090;51.258;4.436;2023-07-13T06:21:46;13.50;;;4.33;;
10100;SDS011;5090;51.258;4.436;2023-07-13T06:24:15;18.23;;;4.13;;
10100;SDS011;5090;51.258;4.436;2023-07-13T06:26:43;16.10;;;5.10;;
10100;SDS011;5090;51.258;4.436;2023-07-13T06:29:11;13.45;;;4.78;;
10100;SDS011;5090;51.258;4.436;2023-07-13T06:31:39;11.25;;;4.03;;
10100;SDS011;5090;51.258;4.436;2023-07-13T06:34:08;17.15;;;4.37;;
10100;SDS011;5090;51.258;4.436;2023-07-13T06:36:36;21.15;;;4.80;;
10100;SDS011;5090;51.258;4.436;2023-07-13T06:39:05;16.30;;;4.40;;
10100;SDS011;5090;51.258;4.436;2023-07-13T06:41:34;17.10;;;4.60;;
10100;SDS011;5090;51.258;4.436;2023-07-13T06:44:02;15.95;;;3.80;;
10100;SDS011;5090;51.258;4.436;2023-07-13T06:46:30;17.50;;;4.53;;
10100;SDS011;5090;51.258;4.436;2023-07-13T06:48:58;11.65;;;3.72;;
10100;SDS011;5090;51.258;4.436;2023-07-13T06:51:27;14.65;;;3.85;;
10100;SDS011;5090;51.258;4.436;2023-07-13T06:53:55;16.73;;;4.80;;
10100;SDS011;5090;51.258;4.436;2023-07-13T06:56:23;11.82;;;3.62;;
10100;SDS011;5090;51.258;4.436;2023-07-13T06:58:51;13.13;;;3.90;;
10100;SDS011;5090;51.258;4.436;2023-07-13T07:01:19;12.60;;;3.40;;
10100;SDS011;5090;51.258;4.436;2023-07-13T07:03:48;11.65;;;3.60;;
10100;SDS011;5090;51.258;4.436;2023-07-13T07:06:18;13.75;;;3.62;;
10100;SDS011;5090;51.258;4.436;2023-07-13T07:08:45;14.10;;;3.70;;
10100;SDS011;5090;51.258;4.436;2023-07-13T07:11:14;9.90;;;3.12;;
10100;SDS011;5090;51.258;4.436;2023-07-13T07:13:41;11.40;;;3.22;;
10100;SDS011;5090;51.258;4.436;2023-07-13T07:16:09;15.80;;;3.75;;
10100;SDS011;5090;51.258;4.436;2023-07-13T07:18:38;15.75;;;3.87;;
10100;SDS011;5090;51.258;4.436;2023-07-13T07:21:06;12.70;;;3.62;;
10100;SDS011;5090;51.258;4.436;2023-07-13T07:23:34;12.40;;;3.85;;
10100;SDS011;5090;51.258;4.436;2023-07-13T07:26:02;11.38;;;3.65;;
10100;SDS011;5090;51.258;4.436;2023-07-13T07:28:31;14.35;;;3.60;;
10100;SDS011;5090;51.258;4.436;2023-07-13T07:30:59;16.00;;;3.80;;
10100;SDS011;5090;51.258;4.436;2023-07-13T07:33:27;13.65;;;3.80;;
10100;SDS011;5090;51.258;4.436;2023-07-13T07:35:55;12.30;;;3.47;;
10100;SDS011;5090;51.258;4.436;2023-07-13T07:38:24;12.50;;;3.42;;
10100;SDS011;5090;51.258;4.436;2023-07-13T07:40:52;9.20;;;3.35;;
10100;SDS011;5090;51.258;4.436;2023-07-13T07:43:20;11.80;;;3.15;;
10100;SDS011;5090;51.258;4.436;2023-07-13T07:45:48;13.10;;;3.62;;
10100;SDS011;5090;51.258;4.436;2023-07-13T07:48:17;13.73;;;3.62;;
10100;SDS011;5090;51.258;4.436;2023-07-13T07:50:45;16.20;;;3.85;;
10100;SDS011;5090;51.258;4.436;2023-07-13T07:53:13;10.48;;;2.97;;
10100;SDS011;5090;51.258;4.436;2023-07-13T07:55:41;12.60;;;2.90;;
10100;SDS011;5090;51.258;4.436;2023-07-13T07:58:10;14.45;;;3.55;;
10100;SDS011;5090;51.258;4.436;2023-07-13T08:00:38;11.77;;;3.22;;
10100;SDS011;5090;51.258;4.436;2023-07-13T08:03:06;13.40;;;3.42;;
10100;SDS011;5090;51.258;4.436;2023-07-13T08:05:35;10.98;;;3.62;;
10100;SDS011;5090;51.258;4.436;2023-07-13T08:08:02;19.55;;;4.28;;
10100;SDS011;5090;51.258;4.436;2023-07-13T08:10:31;10.35;;;3.12;;
10100;SDS011;5090;51.258;4.436;2023-07-13T08:12:59;7.40;;;2.28;;
10100;SDS011;5090;51.258;4.436;2023-07-13T08:15:27;12.37;;;2.95;;
10100;SDS011;5090;51.258;4.436;2023-07-13T08:17:55;10.68;;;2.80;;
10100;SDS011;5090;51.258;4.436;2023-07-13T08:20:24;11.85;;;2.80;;
10100;SDS011;5090;51.258;4.436;2023-07-13T08:22:52;18.30;;;4.30;;
10100;SDS011;5090;51.258;4.436;2023-07-13T08:25:20;10.23;;;2.53;;
10100;SDS011;5090;51.258;4.436;2023-07-13T08:27:48;11.73;;;3.15;;
10100;SDS011;5090;51.258;4.436;2023-07-13T08:30:16;10.65;;;2.60;;
10100;SDS011;5090;51.258;4.436;2023-07-13T08:32:45;10.10;;;2.95;;
10100;SDS011;5090;51.258;4.436;2023-07-13T08:35:13;13.85;;;3.17;;
10100;SDS011;5090;51.258;4.436;2023-07-13T08:37:41;13.13;;;2.42;;
10100;SDS011;5090;51.258;4.436;2023-07-13T08:40:10;12.93;;;3.00;;
10100;SDS011;5090;51.258;4.436;2023-07-13T08:42:39;7.35;;;2.53;;
10100;SDS011;5090;51.258;4.436;2023-07-13T08:45:24;10.23;;;2.85;;
10100;SDS011;5090;51.258;4.436;2023-07-13T08:47:53;9.38;;;2.50;;
10100;SDS011;5090;51.258;4.436;2023-07-13T08:50:21;8.05;;;2.50;;
10100;SDS011;5090;51.258;4.436;2023-07-13T08:52:49;8.27;;;2.70;;
10100;SDS011;5090;51.258;4.436;2023-07-13T08:55:21;10.63;;;3.10;;
10100;SDS011;5090;51.258;4.436;2023-07-13T08:57:48;7.97;;;2.95;;
10100;SDS011;5090;51.258;4.436;2023-07-13T09:00:14;8.77;;;2.95;;
10100;SDS011;5090;51.258;4.436;2023-07-13T09:02:46;10.88;;;3.10;;
10100;SDS011;5090;51.258;4.436;2023-07-13T09:05:18;8.65;;;3.35;;
10100;SDS011;5090;51.258;4.436;2023-07-13T09:07:55;11.18;;;2.75;;
10100;SDS011;5090;51.258;4.436;2023-07-13T09:10:22;8.82;;;3.00;;
10100;SDS011;5090;51.258;4.436;2023-07-13T09:12:51;11.07;;;2.90;;
10100;SDS011;5090;51.258;4.436;2023-07-13T09:15:29;10.10;;;2.90;;
10100;SDS011;5090;51.258;4.436;2023-07-13T09:18:08;8.55;;;2.90;;
10100;SDS011;5090;51.258;4.436;2023-07-13T09:20:35;6.65;;;2.35;;
10100;SDS011;5090;51.258;4.436;2023-07-13T09:23:04;10.35;;;2.87;;
10100;SDS011;5090;51.258;4.436;2023-07-13T09:25:31;11.93;;;2.90;;
10100;SDS011;5090;51.258;4.436;2023-07-13T09:28:01;10.88;;;2.92;;
10100;SDS011;5090;51.258;4.436;2023-07-13T09:31:01;6.65;;;2.55;;
10100;SDS011;5090;51.258;4.436;2023-07-13T09:33:11;9.60;;;2.25;;
10100;SDS011;5090;51.258;4.436;2023-07-13T09:35:40;11.75;;;2.55;;
10100;SDS011;5090;51.258;4.436;2023-07-13T09:38:15;5.60;;;2.53;;
10100;SDS011;5090;51.258;4.436;2023-07-13T09:43:16;6.85;;;2.17;;
10100;SDS011;5090;51.258;4.436;2023-07-13T09:45:45;7.53;;;2.45;;
10100;SDS011;5090;51.258;4.436;2023-07-13T09:48:13;4.30;;;1.75;;
10100;SDS011;5090;51.258;4.436;2023-07-13T09:50:43;5.28;;;1.70;;
10100;SDS011;5090;51.258;4.436;2023-07-13T09:53:15;8.02;;;1.85;;
10100;SDS011;5090;51.258;4.436;2023-07-13T09:55:43;8.27;;;2.33;;
10100;SDS011;5090;51.258;4.436;2023-07-13T09:58:15;5.25;;;1.60;;
10100;SDS011;5090;51.258;4.436;2023-07-13T10:00:43;12.30;;;2.17;;
10100;SDS011;5090;51.258;4.436;2023-07-13T10:03:14;7.78;;;1.83;;
10100;SDS011;5090;51.258;4.436;2023-07-13T10:05:42;7.18;;;2.37;;
10100;SDS011;5090;51.258;4.436;2023-07-13T10:10:43;6.10;;;1.80;;
10100;SDS011;5090;51.258;4.436;2023-07-13T10:13:24;3.78;;;1.65;;
10100;SDS011;5090;51.258;4.436;2023-07-13T10:15:53;5.32;;;1.40;;
10100;SDS011;5090;51.258;4.436;2023-07-13T10:18:21;5.30;;;1.02;;
10100;SDS011;5090;51.258;4.436;2023-07-13T10:20:51;5.30;;;1.60;;
10100;SDS011;5090;51.258;4.436;2023-07-13T10:23:20;4.87;;;1.52;;
10100;SDS011;5090;51.258;4.436;2023-07-13T10:25:46;5.22;;;1.55;;
10100;SDS011;5090;51.258;4.436;2023-07-13T10:28:25;4.37;;;1.77;;
10100;SDS011;5090;51.258;4.436;2023-07-13T10:30:53;3.62;;;1.40;;
10100;SDS011;5090;51.258;4.436;2023-07-13T10:33:21;5.55;;;1.60;;
10100;SDS011;5090;51.258;4.436;2023-07-13T10:35:50;5.75;;;1.48;;
10100;SDS011;5090;51.258;4.436;2023-07-13T10:38:18;5.20;;;1.20;;
10100;SDS011;5090;51.258;4.436;2023-07-13T10:40:51;6.20;;;1.70;;
10100;SDS011;5090;51.258;4.436;2023-07-13T10:43:23;7.18;;;1.60;;
10100;SDS011;5090;51.258;4.436;2023-07-13T10:45:45;6.15;;;1.60;;
10100;SDS011;5090;51.258;4.436;2023-07-13T10:48:13;1.90;;;1.17;;
10100;SDS011;5090;51.258;4.436;2023-07-13T10:50:42;7.62;;;2.00;;
10100;SDS011;5090;51.258;4.436;2023-07-13T10:53:18;4.10;;;1.67;;
10100;SDS011;5090;51.258;4.436;2023-07-13T10:55:56;4.62;;;1.80;;
10100;SDS011;5090;51.258;4.436;2023-07-13T10:58:28;6.20;;;1.37;;
10100;SDS011;5090;51.258;4.436;2023-07-13T11:01:03;8.77;;;1.50;;
10100;SDS011;5090;51.258;4.436;2023-07-13T11:03:27;3.92;;;1.37;;
10100;SDS011;5090;51.258;4.436;2023-07-13T11:08:33;4.68;;;1.17;;
10100;SDS011;5090;51.258;4.436;2023-07-13T11:11:00;4.32;;;1.58;;
10100;SDS011;5090;51.258;4.436;2023-07-13T11:16:11;6.93;;;1.60;;
10100;SDS011;5090;51.258;4.436;2023-07-13T11:18:30;6.12;;;2.03;;
10100;SDS011;5090;51.258;4.436;2023-07-13T11:23:32;4.70;;;2.03;;
10100;SDS011;5090;51.258;4.436;2023-07-13T11:26:00;6.78;;;2.47;;
10100;SDS011;5090;51.258;4.436;2023-07-13T11:28:30;6.62;;;2.45;;
10100;SDS011;5090;51.258;4.436;2023-07-13T11:31:01;7.05;;;2.50;;
10100;SDS011;5090;51.258;4.436;2023-07-13T11:33:44;6.97;;;2.80;;
10100;SDS011;5090;51.258;4.436;2023-07-13T11:35:59;7.50;;;2.78;;
10100;SDS011;5090;51.258;4.436;2023-07-13T11:38:43;13.25;;;3.97;;
10100;SDS011;5090;51.258;4.436;2023-07-13T11:41:22;9.70;;;3.72;;
10100;SDS011;5090;51.258;4.436;2023-07-13T11:43:52;6.35;;;2.97;;
10100;SDS011;5090;51.258;4.436;2023-07-13T11:46:22;5.00;;;2.90;;
10100;SDS011;5090;51.258;4.436;2023-07-13T11:48:50;6.43;;;3.40;;
10100;SDS011;5090;51.258;4.436;2023-07-13T11:51:20;8.50;;;3.00;;
10100;SDS011;5090;51.258;4.436;2023-07-13T11:53:48;7.32;;;2.47;;
10100;SDS011;5090;51.258;4.436;2023-07-13T11:56:15;4.50;;;2.90;;
10100;SDS011;5090;51.258;4.436;2023-07-13T11:58:43;7.55;;;2.47;;
10100;SDS011;5090;51.258;4.436;2023-07-13T12:01:16;8.23;;;2.67;;
10100;SDS011;5090;51.258;4.436;2023-07-13T12:03:41;7.47;;;2.90;;
10100;SDS011;5090;51.258;4.436;2023-07-13T12:06:19;8.23;;;3.00;;
10100;SDS011;5090;51.258;4.436;2023-07-13T12:08:39;6.82;;;3.03;;
10100;SDS011;5090;51.258;4.436;2023-07-13T12:13:41;5.37;;;2.58;;
10100;SDS011;5090;51.258;4.436;2023-07-13T12:16:11;7.07;;;2.65;;
10100;SDS011;5090;51.258;4.436;2023-07-13T12:18:38;4.43;;;2.65;;
10100;SDS011;5090;51.258;4.436;2023-07-13T12:21:09;4.12;;;2.05;;
10100;SDS011;5090;51.258;4.436;2023-07-13T12:23:35;8.45;;;3.37;;
10100;SDS011;5090;51.258;4.436;2023-07-13T12:26:04;5.70;;;2.50;;
10100;SDS011;5090;51.258;4.436;2023-07-13T12:28:35;2.58;;;2.05;;
10100;SDS011;5090;51.258;4.436;2023-07-13T12:31:03;4.65;;;2.00;;
10100;SDS011;5090;51.258;4.436;2023-07-13T12:33:30;3.78;;;1.52;;
10100;SDS011;5090;51.258;4.436;2023-07-13T12:36:01;6.93;;;1.73;;
10100;SDS011;5090;51.258;4.436;2023-07-13T12:38:30;5.00;;;1.92;;
10100;SDS011;5090;51.258;4.436;2023-07-13T12:40:58;5.70;;;2.33;;
10100;SDS011;5090;51.258;4.436;2023-07-13T12:43:26;5.10;;;1.90;;
10100;SDS011;5090;51.258;4.436;2023-07-13T12:45:57;2.53;;;1.62;;
10100;SDS011;5090;51.258;4.436;2023-07-13T12:48:24;3.35;;;1.70;;
10100;SDS011;5090;51.258;4.436;2023-07-13T12:50:53;2.42;;;1.50;;
10100;SDS011;5090;51.258;4.436;2023-07-13T12:53:22;5.55;;;1.87;;
10100;SDS011;5090;51.258;4.436;2023-07-13T12:55:51;4.93;;;1.73;;
10100;SDS011;5090;51.258;4.436;2023-07-13T12:58:25;2.17;;;1.50;;
10100;SDS011;5090;51.258;4.436;2023-07-13T13:00:50;6.28;;;2.25;;
10100;SDS011;5090;51.258;4.436;2023-07-13T13:03:21;6.25;;;2.62;;
10100;SDS011;5090;51.258;4.436;2023-07-13T13:05:49;9.32;;;2.87;;
10100;SDS011;5090;51.258;4.436;2023-07-13T13:08:17;2.12;;;1.55;;
10100;SDS011;5090;51.258;4.436;2023-07-13T13:10:45;3.20;;;1.67;;
10100;SDS011;5090;51.258;4.436;2023-07-13T13:13:13;6.07;;;1.80;;
10100;SDS011;5090;51.258;4.436;2023-07-13T13:15:41;5.03;;;1.75;;
10100;SDS011;5090;51.258;4.436;2023-07-13T13:18:14;5.37;;;1.80;;
10100;SDS011;5090;51.258;4.436;2023-07-13T13:20:38;4.35;;;1.90;;
10100;SDS011;5090;51.258;4.436;2023-07-13T13:23:10;3.90;;;2.33;;
10100;SDS011;5090;51.258;4.436;2023-07-13T13:25:35;6.55;;;2.45;;
10100;SDS011;5090;51.258;4.436;2023-07-13T13:28:04;6.40;;;2.60;;
10100;SDS011;5090;51.258;4.436;2023-07-13T13:30:32;5.47;;;2.20;;
10100;SDS011;5090;51.258;4.436;2023-07-13T13:33:00;5.90;;;2.50;;
10100;SDS011;5090;51.258;4.436;2023-07-13T13:35:29;5.37;;;2.20;;
10100;SDS011;5090;51.258;4.436;2023-07-13T13:37:57;6.53;;;3.00;;
10100;SDS011;5090;51.258;4.436;2023-07-13T13:40:25;4.57;;;2.58;;
10100;SDS011;5090;51.258;4.436;2023-07-13T13:42:53;5.50;;;2.83;;
10100;SDS011;5090;51.258;4.436;2023-07-13T13:45:22;7.45;;;2.90;;
10100;SDS011;5090;51.258;4.436;2023-07-13T13:47:50;4.55;;;3.12;;
10100;SDS011;5090;51.258;4.436;2023-07-13T13:50:21;9.00;;;2.97;;
10100;SDS011;5090;51.258;4.436;2023-07-13T13:52:49;5.50;;;3.03;;
10100;SDS011;5090;51.258;4.436;2023-07-13T13:55:18;7.05;;;3.10;;
10100;SDS011;5090;51.258;4.436;2023-07-13T13:57:46;9.60;;;2.85;;
10100;SDS011;5090;51.258;4.436;2023-07-13T14:00:14;8.68;;;3.15;;
10100;SDS011;5090;51.258;4.436;2023-07-13T14:02:44;5.32;;;2.70;;
10100;SDS011;5090;51.258;4.436;2023-07-13T14:05:12;7.93;;;3.25;;
10100;SDS011;5090;51.258;4.436;2023-07-13T14:07:40;7.07;;;3.15;;
10100;SDS011;5090;51.258;4.436;2023-07-13T14:10:11;7.68;;;3.00;;
10100;SDS011;5090;51.258;4.436;2023-07-13T14:12:37;5.85;;;3.10;;
10100;SDS011;5090;51.258;4.436;2023-07-13T14:15:06;5.30;;;2.90;;
10100;SDS011;5090;51.258;4.436;2023-07-13T14:17:34;5.70;;;2.53;;
10100;SDS011;5090;51.258;4.436;2023-07-13T14:20:02;8.07;;;3.62;;
10100;SDS011;5090;51.258;4.436;2023-07-13T14:22:31;6.87;;;3.35;;
10100;SDS011;5090;51.258;4.436;2023-07-13T14:24:59;4.70;;;3.10;;
10100;SDS011;5090;51.258;4.436;2023-07-13T14:27:27;6.70;;;3.40;;
10100;SDS011;5090;51.258;4.436;2023-07-13T14:29:56;5.10;;;2.87;;
10100;SDS011;5090;51.258;4.436;2023-07-13T14:32:24;6.65;;;2.90;;
10100;SDS011;5090;51.258;4.436;2023-07-13T14:34:52;3.55;;;2.03;;
10100;SDS011;5090;51.258;4.436;2023-07-13T14:37:20;4.65;;;1.95;;
10100;SDS011;5090;51.258;4.436;2023-07-13T14:39:49;5.97;;;1.70;;
10100;SDS011;5090;51.258;4.436;2023-07-13T14:42:18;6.00;;;2.10;;
10100;SDS011;5090;51.258;4.436;2023-07-13T14:44:46;7.12;;;2.42;;
10100;SDS011;5090;51.258;4.436;2023-07-13T14:47:14;6.80;;;2.50;;
10100;SDS011;5090;51.258;4.436;2023-07-13T14:49:43;7.57;;;2.22;;
10100;SDS011;5090;51.258;4.436;2023-07-13T14:52:14;6.90;;;2.45;;
10100;SDS011;5090;51.258;4.436;2023-07-13T14:54:41;5.85;;;2.22;;
10100;SDS011;5090;51.258;4.436;2023-07-13T14:57:10;5.47;;;2.35;;
10100;SDS011;5090;51.258;4.436;2023-07-13T14:59:37;8.25;;;2.75;;
10100;SDS011;5090;51.258;4.436;2023-07-13T15:02:13;4.65;;;2.70;;
10100;SDS011;5090;51.258;4.436;2023-07-13T15:04:38;6.07;;;2.50;;
10100;SDS011;5090;51.258;4.436;2023-07-13T15:07:07;5.12;;;2.30;;
10100;SDS011;5090;51.258;4.436;2023-07-13T15:09:34;7.32;;;2.17;;
10100;SDS011;5090;51.258;4.436;2023-07-13T15:12:02;6.05;;;2.20;;
10100;SDS011;5090;51.258;4.436;2023-07-13T15:14:30;5.30;;;2.05;;
10100;SDS011;5090;51.258;4.436;2023-07-13T15:16:59;3.87;;;2.15;;
10100;SDS011;5090;51.258;4.436;2023-07-13T15:19:27;5.53;;;2.33;;
10100;SDS011;5090;51.258;4.436;2023-07-13T15:21:55;9.48;;;3.42;;
10100;SDS011;5090;51.258;4.436;2023-07-13T15:24:24;8.98;;;4.05;;